Time;durP1;ratioP1;P1;durP2;ratioP2;P2;SDS_P1;SDS_P2;PMS_P1;PMS_P2;Temp;Humidity;BMP_temperature;BMP_pressure;BME280_temperature;BME280_humidity;BME280_pressure;Samples;Min_cycle;Max_cycle;Signal;HPM_P1;HPM_P2
2022/07/23 00:01:56;;;;;;;6.70;5.37;;;;;;;25.80;52.73;99564.44;5135808;27;20250;-70
2022/07/23 00:04:22;;;;;;;11.07;6.07;;;;;;;25.88;52.31;99571.94;5135802;27;20736;-70
2022/07/23 00:06:49;;;;;;;7.53;5.97;;;;;;;25.94;53.08;99564.53;5135530;27;20621;-70
2022/07/23 00:09:16;;;;;;;7.60;6.03;;;;;;;25.99;51.57;99568.00;5136053;27;20242;-70
2022/07/23 00:11:43;;;;;;;12.83;5.97;;;;;;;26.04;52.87;99567.13;5136430;27;20217;-70
2022/07/23 00:14:11;;;;;;;10.07;5.63;;;;;;;25.97;52.35;99577.56;5135222;27;20194;-70
2022/07/23 00:16:37;;;;;;;6.30;5.67;;;;;;;25.99;51.38;99570.72;5135252;27;20197;-70
2022/07/23 00:19:04;;;;;;;7.07;5.97;;;;;;;26.08;51.67;99565.41;5136168;27;20250;-70
2022/07/23 00:21:31;;;;;;;8.37;6.20;;;;;;;26.10;52.11;99565.94;5135741;27;20198;-70
2022/07/23 00:23:58;;;;;;;9.73;6.60;;;;;;;26.16;51.45;99564.75;5135418;27;20239;-69
2022/07/23 00:26:24;;;;;;;6.67;6.17;;;;;;;26.25;50.28;99561.06;5135654;27;20602;-69
2022/07/23 00:28:51;;;;;;;6.50;5.87;;;;;;;26.35;50.44;99571.81;5135967;27;20254;-69
2022/07/23 00:31:19;;;;;;;8.83;5.60;;;;;;;26.42;50.27;99569.50;5134875;27;20654;-69
2022/07/23 00:33:46;;;;;;;12.00;5.83;;;;;;;26.51;49.86;99566.91;5135703;27;20298;-69
2022/07/23 00:36:13;;;;;;;6.30;5.70;;;;;;;26.55;49.82;99567.94;5135209;27;20550;-69
2022/07/23 00:38:39;;;;;;;11.07;8.37;;;;;;;26.60;50.58;99565.16;5134888;27;20197;-69
2022/07/23 00:41:06;;;;;;;14.10;8.40;;;;;;;26.48;51.44;99567.50;5134822;27;20251;-69
2022/07/23 00:43:33;;;;;;;11.60;9.07;;;;;;;26.34;51.62;99577.56;5135153;27;20281;-69
2022/07/23 00:46:00;;;;;;;9.53;8.73;;;;;;;26.21;52.24;99573.66;5133748;27;20190;-69
2022/07/23 00:48:28;;;;;;;11.13;8.90;;;;;;;26.14;52.37;99566.97;5135248;27;20225;-70
2022/07/23 00:50:54;;;;;;;14.07;9.57;;;;;;;26.11;52.88;99573.00;5135203;27;20186;-70
2022/07/23 00:53:22;;;;;;;11.17;8.20;;;;;;;26.06;53.04;99570.34;5134843;27;20221;-70
2022/07/23 00:55:49;;;;;;;11.80;8.80;;;;;;;26.09;52.47;99575.22;5134904;27;20194;-70
2022/07/23 00:58:16;;;;;;;8.83;8.10;;;;;;;26.09;52.49;99572.50;5134768;27;20729;-70
2022/07/23 01:00:43;;;;;;;8.20;7.40;;;;;;;26.13;52.54;99582.50;5134994;27;20250;-70
2022/07/23 01:03:10;;;;;;;8.70;7.90;;;;;;;26.21;52.21;99584.53;5134367;27;20657;-70
2022/07/23 01:05:38;;;;;;;8.13;6.87;;;;;;;26.30;51.96;99581.97;5134697;27;20250;-70
2022/07/23 01:08:07;;;;;;;9.17;6.40;;;;;;;26.27;52.28;99583.38;5134245;27;20722;-69
2022/07/23 01:10:34;;;;;;;8.33;7.43;;;;;;;26.22;52.41;99575.28;5134544;27;20190;-70
2022/07/23 01:13:02;;;;;;;7.47;6.73;;;;;;;26.25;52.36;99574.69;5134134;27;20217;-69
2022/07/23 01:15:29;;;;;;;7.97;6.90;;;;;;;26.28;52.97;99574.09;5134139;27;20194;-70
2022/07/23 01:17:56;;;;;;;7.13;6.63;;;;;;;26.28;52.62;99573.28;5134167;27;20246;-70
2022/07/23 01:20:23;;;;;;;7.77;6.93;;;;;;;26.31;52.28;99572.69;5134340;27;20243;-69
2022/07/23 01:22:52;;;;;;;8.43;6.50;;;;;;;26.38;51.76;99573.13;5134328;27;20250;-69
2022/07/23 01:25:18;;;;;;;7.40;6.70;;;;;;;26.45;51.48;99565.41;5134003;27;20190;-69
2022/07/23 01:27:45;;;;;;;9.47;7.03;;;;;;;26.50;51.26;99574.28;5133991;27;20194;-70
2022/07/23 01:30:13;;;;;;;7.17;6.40;;;;;;;26.49;51.50;99574.56;5134650;27;20194;-70
2022/07/23 01:32:40;;;;;;;13.30;7.20;;;;;;;26.44;51.25;99567.31;5134052;27;20253;-70
2022/07/23 01:35:08;;;;;;;15.00;8.47;;;;;;;26.43;51.33;99575.78;5134070;27;20224;-70
2022/07/23 01:37:35;;;;;;;9.83;8.53;;;;;;;26.39;51.81;99580.19;5134466;27;20186;-70
2022/07/23 01:40:05;;;;;;;10.30;7.97;;;;;;;26.31;51.89;99572.69;5133637;27;20280;-70
2022/07/23 01:42:32;;;;;;;13.43;7.40;;;;;;;26.35;51.60;99568.28;5134209;27;20201;-70
2022/07/23 01:44:58;;;;;;;8.17;7.37;;;;;;;26.36;51.68;99575.31;5133921;27;20194;-70
2022/07/23 01:47:25;;;;;;;14.47;8.93;;;;;;;26.38;51.31;99573.94;5134021;27;20230;-69
2022/07/23 01:49:52;;;;;;;9.40;8.50;;;;;;;26.44;50.86;99571.94;5133503;27;20246;-70
2022/07/23 01:52:18;;;;;;;12.07;10.00;;;;;;;26.43;50.55;99575.78;5133903;27;20222;-69
2022/07/23 01:54:45;;;;;;;15.57;9.40;;;;;;;26.43;50.89;99575.78;5133747;27;20190;-69
2022/07/23 01:57:13;;;;;;;12.80;10.20;;;;;;;26.44;51.01;99566.47;5134034;27;20254;-69
2022/07/23 01:59:40;;;;;;;15.87;10.03;;;;;;;26.46;50.54;99569.72;5133861;27;20262;-70
2022/07/23 02:02:07;;;;;;;18.93;10.27;;;;;;;26.43;49.99;99570.31;5133231;27;20634;-69
2022/07/23 02:04:36;;;;;;;12.17;10.50;;;;;;;26.40;50.55;99570.91;5133261;27;20198;-70
2022/07/23 02:07:03;;;;;;;11.70;9.93;;;;;;;26.39;50.06;99574.75;5133222;27;20194;-70
2022/07/23 02:09:30;;;;;;;17.50;10.43;;;;;;;26.36;50.12;99575.31;5133746;27;20556;-70
2022/07/23 02:11:57;;;;;;;12.00;10.27;;;;;;;26.34;50.72;99574.84;5133065;27;20653;-70
2022/07/23 02:14:25;;;;;;;12.70;11.50;;;;;;;26.35;50.37;99573.72;5133670;27;20621;-70
2022/07/23 02:16:52;;;;;;;16.87;11.80;;;;;;;26.34;50.35;99578.34;5133053;27;20628;-69
2022/07/23 02:19:19;;;;;;;12.20;10.60;;;;;;;26.37;50.15;99582.41;5132952;27;20661;-69
2022/07/23 02:21:46;;;;;;;13.00;11.60;;;;;;;26.20;49.74;99572.03;5132953;27;20670;-69
2022/07/23 02:24:12;;;;;;;20.27;11.83;;;;;;;26.03;50.44;99579.09;5133018;27;20201;-70
2022/07/23 02:26:39;;;;;;;14.87;12.03;;;;;;;25.86;51.19;99576.06;5132944;27;20606;-71
2022/07/23 02:29:06;;;;;;;11.77;10.63;;;;;;;25.71;51.27;99568.91;5134051;27;20190;-71
2022/07/23 02:31:34;;;;;;;12.43;11.30;;;;;;;25.85;51.32;99574.44;5132902;27;20710;-71
2022/07/23 02:34:02;;;;;;;15.80;10.90;;;;;;;25.93;51.35;99581.97;5132743;27;20222;-70
2022/07/23 02:36:29;;;;;;;12.53;11.03;;;;;;;26.02;50.73;99580.22;5132858;28;20194;-70
2022/07/23 02:38:56;;;;;;;13.77;10.83;;;;;;;26.10;49.97;99576.84;5132856;28;20718;-70
2022/07/23 02:41:23;;;;;;;15.00;11.07;;;;;;;26.17;49.55;99578.06;5132824;27;20572;-69
2022/07/23 02:43:50;;;;;;;12.93;10.93;;;;;;;26.12;50.21;99575.44;5132665;27;20234;-70
2022/07/23 02:46:17;;;;;;;16.30;11.33;;;;;;;26.15;50.35;99574.84;5133435;28;20193;-70
2022/07/23 02:48:45;;;;;;;11.13;9.97;;;;;;;26.13;50.08;99578.97;5133742;28;20673;-70
2022/07/23 02:51:11;;;;;;;13.87;10.23;;;;;;;26.15;50.48;99579.47;5132723;28;20263;-70
2022/07/23 02:53:38;;;;;;;14.13;11.50;;;;;;;26.21;49.91;99578.31;5133751;28;20293;-69
2022/07/23 02:56:05;;;;;;;17.40;10.33;;;;;;;26.13;50.17;99584.41;5132719;28;20729;-70
2022/07/23 02:58:32;;;;;;;16.03;9.93;;;;;;;26.10;50.71;99579.56;5132636;28;20230;-70
2022/07/23 03:00:59;;;;;;;15.43;11.00;;;;;;;26.14;50.14;99580.59;5133368;28;20190;-70
2022/07/23 03:03:25;;;;;;;14.70;10.27;;;;;;;26.14;50.18;99577.88;5133001;28;20194;-69
2022/07/23 03:05:53;;;;;;;10.70;9.70;;;;;;;26.20;50.33;99582.13;5132596;27;20189;-70
2022/07/23 03:08:20;;;;;;;12.73;9.90;;;;;;;26.23;49.73;99581.53;5133943;27;20225;-69
2022/07/23 03:10:47;;;;;;;13.63;9.50;;;;;;;26.27;50.17;99586.09;5137609;27;20198;-69
2022/07/23 03:13:14;;;;;;;14.17;10.03;;;;;;;26.29;49.72;99592.06;5136335;27;20218;-69
2022/07/23 03:15:40;;;;;;;15.53;8.80;;;;;;;26.27;49.62;99590.72;5136731;27;20186;-69
2022/07/23 03:18:07;;;;;;;10.87;9.23;;;;;;;26.29;50.17;99591.25;5136462;27;20235;-69
2022/07/23 03:20:34;;;;;;;9.80;8.80;;;;;;;26.31;49.98;99591.75;5137260;27;20186;-69
2022/07/23 03:23:02;;;;;;;10.37;9.40;;;;;;;26.41;49.52;99597.06;5136719;27;20190;-69
2022/07/23 03:25:29;;;;;;;9.80;8.83;;;;;;;26.45;49.33;99600.81;5136649;27;20250;-69
2022/07/23 03:27:55;;;;;;;13.20;8.27;;;;;;;26.55;48.53;99598.75;5136216;27;20198;-69
2022/07/23 03:30:22;;;;;;;9.33;7.80;;;;;;;26.60;48.39;99598.69;5136152;27;20193;-69
2022/07/23 03:32:49;;;;;;;8.97;8.07;;;;;;;26.60;48.79;99598.69;5136961;27;20281;-69
2022/07/23 03:35:16;;;;;;;8.47;7.57;;;;;;;26.65;47.94;99601.31;5136124;27;20721;-69
2022/07/23 03:37:42;;;;;;;13.10;7.70;;;;;;;26.54;48.37;99604.47;5136117;27;20250;-70
2022/07/23 03:40:12;;;;;;;8.73;7.60;;;;;;;26.41;49.34;99606.03;5136560;27;20242;-69
2022/07/23 03:42:41;;;;;;;10.57;7.63;;;;;;;26.52;48.39;99606.69;5135826;27;20657;-69
2022/07/23 03:45:08;;;;;;;8.43;6.90;;;;;;;26.65;47.89;99606.75;5136222;27;20198;-69
2022/07/23 03:47:35;;;;;;;8.27;7.53;;;;;;;26.69;47.88;99607.78;5135880;27;20278;-70
2022/07/23 03:50:01;;;;;;;10.77;7.53;;;;;;;26.72;47.88;99609.09;5135873;27;20255;-69
2022/07/23 03:52:28;;;;;;;10.67;8.17;;;;;;;26.82;47.42;99600.78;5135855;27;20247;-69
2022/07/23 03:54:55;;;;;;;8.70;7.50;;;;;;;26.90;47.31;99603.59;5136080;27;20317;-69
2022/07/23 03:57:23;;;;;;;11.10;7.37;;;;;;;27.01;47.26;99604.22;5135960;27;20198;-70
2022/07/23 03:59:49;;;;;;;9.20;7.80;;;;;;;27.10;46.62;99602.41;5136804;27;20251;-70
2022/07/23 04:02:16;;;;;;;8.87;6.97;;;;;;;27.25;46.33;99599.44;5135881;27;20198;-71
2022/07/23 04:04:43;;;;;;;7.63;6.80;;;;;;;27.29;45.78;99605.91;5135868;27;20271;-70
2022/07/23 04:07:10;;;;;;;8.13;6.53;;;;;;;27.34;45.67;99597.63;5135492;27;20235;-71
2022/07/23 04:09:36;;;;;;;7.23;6.53;;;;;;;27.49;45.14;99602.78;5135454;27;20730;-71
2022/07/23 04:12:03;;;;;;;7.70;7.00;;;;;;;28.11;43.60;99607.47;5135403;27;20254;-71
2022/07/23 04:14:31;;;;;;;7.63;6.97;;;;;;;28.74;41.76;99616.38;5135311;27;20670;-71
2022/07/23 04:16:58;;;;;;;7.23;6.47;;;;;;;29.26;40.51;99618.31;5135479;27;20259;-70
2022/07/23 04:19:25;;;;;;;8.47;6.47;;;;;;;29.65;39.32;99618.34;5135244;27;20681;-70
2022/07/23 04:21:52;;;;;;;10.47;6.67;;;;;;;30.05;38.22;99624.56;5135264;27;20194;-70
2022/07/23 04:24:18;;;;;;;8.50;7.40;;;;;;;30.56;37.24;99625.41;5142880;27;20656;-70
2022/07/23 04:26:45;;;;;;;7.87;7.20;;;;;;;31.00;36.38;99616.81;5156187;27;20661;-69
2022/07/23 04:29:12;;;;;;;9.90;6.93;;;;;;;31.43;35.59;99622.16;5156175;27;20193;-69
2022/07/23 04:31:40;;;;;;;8.27;7.37;;;;;;;31.82;34.82;99619.94;5156006;27;20189;-68
2022/07/23 04:34:07;;;;;;;10.80;7.50;;;;;;;32.13;34.15;99625.84;5155705;27;20274;-68
2022/07/23 04:36:34;;;;;;;8.80;8.10;;;;;;;32.49;33.17;99634.34;5155717;27;20198;-68
2022/07/23 04:39:01;;;;;;;8.00;7.30;;;;;;;32.78;32.84;99628.72;5155973;27;20257;-68
2022/07/23 04:41:27;;;;;;;12.73;7.67;;;;;;;33.00;32.54;99628.34;5155655;27;20249;-68
2022/07/23 04:43:54;;;;;;;11.07;7.50;;;;;;;33.10;32.13;99627.94;5155851;27;20559;-68
2022/07/23 04:46:21;;;;;;;8.97;8.23;;;;;;;33.43;31.73;99625.13;5155925;27;20257;-68
2022/07/23 04:48:49;;;;;;;9.23;7.07;;;;;;;33.55;31.36;99632.63;5155333;27;20692;-68
2022/07/23 04:51:15;;;;;;;7.73;7.17;;;;;;;33.86;30.82;99643.88;5155475;27;20193;-68
2022/07/23 04:53:42;;;;;;;11.10;7.50;;;;;;;34.05;30.41;99635.84;5155299;27;20213;-68
2022/07/23 04:56:09;;;;;;;9.27;8.03;;;;;;;34.19;30.18;99642.59;5155322;27;20770;-68
2022/07/23 04:58:36;;;;;;;15.27;8.47;;;;;;;34.29;30.51;99642.09;5155861;27;20251;-68
2022/07/23 05:01:02;;;;;;;8.67;7.77;;;;;;;34.57;30.07;99636.66;5155610;27;20193;-68
2022/07/23 05:03:29;;;;;;;15.20;8.07;;;;;;;34.56;29.67;99641.38;5155056;27;20258;-67
2022/07/23 05:05:57;;;;;;;11.15;8.38;;;;;;;34.77;29.51;99641.16;5155390;27;20250;-68
2022/07/23 05:08:24;;;;;;;12.65;8.07;;;;;;;34.68;29.68;99629.47;5155375;27;20273;-68
2022/07/23 05:10:51;;;;;;;12.75;7.80;;;;;;;34.78;29.57;99631.75;5155565;27;20262;-68
2022/07/23 05:13:18;;;;;;;11.02;8.70;;;;;;;34.97;29.77;99640.16;5155331;27;20220;-68
2022/07/23 05:15:45;;;;;;;14.75;9.55;;;;;;;35.67;28.89;99630.97;5154822;27;20725;-66
2022/07/23 05:18:12;;;;;;;13.85;8.48;;;;;;;35.68;28.99;99629.81;5155162;27;20185;-67
2022/07/23 05:20:39;;;;;;;17.05;8.75;;;;;;;35.79;28.86;99625.38;5155541;27;20193;-67
2022/07/23 05:23:07;;;;;;;14.40;8.75;;;;;;;36.00;28.39;99628.63;5154979;27;20250;-67
2022/07/23 05:25:34;;;;;;;15.00;8.90;;;;;;;36.23;28.21;99632.34;5155740;27;20250;-67
2022/07/23 05:28:01;;;;;;;13.65;9.38;;;;;;;36.76;27.76;99628.75;5154613;27;20197;-67
2022/07/23 05:30:28;;;;;;;16.52;8.93;;;;;;;36.96;27.00;99633.09;5154314;27;20242;-68
2022/07/23 05:32:54;;;;;;;14.55;8.57;;;;;;;36.92;27.84;99623.91;5155163;27;20620;-68
2022/07/23 05:35:21;;;;;;;12.13;8.35;;;;;;;36.93;26.84;99626.31;5154393;27;20622;-67
2022/07/23 05:37:48;;;;;;;9.55;7.65;;;;;;;37.02;27.27;99626.88;5154431;27;20194;-68
2022/07/23 05:40:16;;;;;;;20.45;8.38;;;;;;;37.27;26.54;99621.00;5154379;27;20242;-67
2022/07/23 05:42:43;;;;;;;12.95;7.53;;;;;;;37.43;26.78;99621.69;5154347;27;20253;-67
2022/07/23 05:45:11;;;;;;;10.73;7.70;;;;;;;37.28;25.94;99629.75;5154228;27;20249;-67
2022/07/23 05:47:42;;;;;;;10.55;7.53;;;;;;;37.50;26.29;99628.16;5154730;27;20580;-67
2022/07/23 05:50:10;;;;;;;13.68;7.28;;;;;;;37.41;26.42;99622.06;5154182;27;20245;-67
2022/07/23 05:52:37;;;;;;;7.35;6.85;;;;;;;37.36;25.96;99630.69;5154229;27;20189;-67
2022/07/23 05:55:04;;;;;;;8.55;6.78;;;;;;;37.48;26.21;99629.69;5154417;27;20213;-67
2022/07/23 05:57:32;;;;;;;10.48;7.22;;;;;;;37.56;26.57;99628.63;5154334;27;20249;-68
2022/07/23 05:59:58;;;;;;;10.10;7.15;;;;;;;37.53;25.98;99641.28;5154016;27;20649;-67
2022/07/23 06:02:25;;;;;;;8.88;6.88;;;;;;;37.63;26.21;99635.13;5141412;27;20242;-68
2022/07/23 06:04:52;;;;;;;8.38;7.15;;;;;;;37.79;25.82;99627.44;5133316;27;20194;-68
2022/07/23 06:07:19;;;;;;;11.63;7.22;;;;;;;37.90;25.76;99624.84;5132697;27;20193;-67
2022/07/23 06:09:46;;;;;;;10.18;7.10;;;;;;;38.08;25.75;99629.50;5132874;27;20193;-68
2022/07/23 06:12:13;;;;;;;11.10;6.90;;;;;;;38.25;25.31;99628.94;5132936;27;20251;-69
2022/07/23 06:14:41;;;;;;;15.60;7.13;;;;;;;38.42;25.63;99627.59;5130493;27;20384;-67
2022/07/23 06:17:08;;;;;;;7.93;6.75;;;;;;;38.49;25.31;99622.94;5130707;27;20190;-71
2022/07/23 06:19:35;;;;;;;12.70;6.95;;;;;;;38.65;25.52;99629.09;5130873;27;20221;-68
2022/07/23 06:22:02;;;;;;;11.52;7.07;;;;;;;38.67;25.03;99631.50;5127844;27;20186;-69
2022/07/23 06:24:29;;;;;;;9.50;7.15;;;;;;;38.78;25.46;99633.22;5128322;27;20246;-68
2022/07/23 06:26:55;;;;;;;10.43;6.88;;;;;;;38.66;24.94;99633.47;5129579;27;20202;-68
2022/07/23 06:29:22;;;;;;;9.70;6.10;;;;;;;38.70;25.16;99631.53;5130904;27;20569;-67
2022/07/23 06:31:50;;;;;;;6.00;5.60;;;;;;;38.42;24.49;99627.59;5131557;27;20246;-67
2022/07/23 06:34:17;;;;;;;8.18;5.35;;;;;;;38.41;25.00;99632.34;5130604;27;20769;-68
2022/07/23 06:36:43;;;;;;;17.15;6.45;;;;;;;38.20;25.12;99634.06;5132576;27;20246;-67
2022/07/23 06:39:10;;;;;;;7.40;5.72;;;;;;;38.06;24.98;99631.88;5131705;28;20193;-67
2022/07/23 06:41:37;;;;;;;11.43;5.85;;;;;;;38.34;24.94;99629.50;5132731;27;20198;-67
2022/07/23 06:44:04;;;;;;;12.65;5.57;;;;;;;38.06;24.67;99620.75;5135436;27;20198;-67
2022/07/23 06:46:31;;;;;;;5.65;5.13;;;;;;;38.08;25.46;99621.19;5137193;27;20562;-67
2022/07/23 06:48:59;;;;;;;11.20;5.20;;;;;;;37.93;25.40;99616.59;5137390;27;20229;-67
2022/07/23 06:51:26;;;;;;;9.90;5.63;;;;;;;38.02;25.87;99617.09;5136750;27;20246;-66
2022/07/23 06:53:53;;;;;;;7.95;5.07;;;;;;;38.14;25.38;99616.91;5136281;27;20326;-66
2022/07/23 06:56:19;;;;;;;7.03;5.15;;;;;;;38.27;24.82;99615.50;5136538;27;20619;-65
2022/07/23 06:58:46;;;;;;;7.97;5.55;;;;;;;38.34;25.15;99609.25;5136493;27;20313;-66
2022/07/23 07:01:13;;;;;;;13.20;5.35;;;;;;;38.31;24.78;99602.47;5136223;27;20186;-67
2022/07/23 07:03:39;;;;;;;7.60;5.18;;;;;;;38.45;24.90;99599.84;5134992;27;20247;-66
2022/07/23 07:06:08;;;;;;;11.45;5.32;;;;;;;38.73;24.92;99600.22;5135262;27;20202;-65
2022/07/23 07:08:34;;;;;;;8.55;5.40;;;;;;;38.98;24.63;99606.09;5134470;27;20267;-66
2022/07/23 07:11:01;;;;;;;10.57;5.15;;;;;;;39.15;24.31;99606.25;5135508;27;20189;-66
2022/07/23 07:13:28;;;;;;;6.32;4.75;;;;;;;39.21;23.87;99604.72;5135048;27;20567;-65
2022/07/23 07:15:55;;;;;;;16.27;5.63;;;;;;;39.38;24.07;99597.72;5135129;27;20774;-66
2022/07/23 07:18:21;;;;;;;5.80;4.95;;;;;;;39.66;23.61;99597.97;5135030;27;20190;-67
2022/07/23 07:20:48;;;;;;;5.10;4.53;;;;;;;40.02;23.31;99597.84;5135281;27;20197;-69
2022/07/23 07:23:16;;;;;;;11.20;4.38;;;;;;;39.93;23.08;99580.66;5135052;27;20194;-71
2022/07/23 07:25:43;;;;;;;5.72;4.38;;;;;;;40.05;22.48;99594.25;5135383;27;20194;-71
2022/07/23 07:28:10;;;;;;;8.85;5.35;;;;;;;40.02;23.41;99591.47;5135308;27;20250;-73
2022/07/23 07:30:37;;;;;;;6.97;4.72;;;;;;;39.88;22.88;99594.97;5135085;27;20186;-73
2022/07/23 07:33:03;;;;;;;9.20;4.68;;;;;;;39.89;23.03;99584.63;5135288;27;20185;-71
2022/07/23 07:35:31;;;;;;;11.70;5.20;;;;;;;40.05;22.58;99588.69;5134948;27;20217;-70
2022/07/23 07:37:57;;;;;;;7.93;5.65;;;;;;;40.12;23.08;99582.34;5135448;27;20217;-71
2022/07/23 07:40:26;;;;;;;6.57;4.93;;;;;;;40.25;23.12;99581.66;5131418;27;20258;-73
2022/07/23 07:42:56;;;;;;;7.43;4.70;;;;;;;40.46;22.07;99581.75;5136098;27;20185;-71
2022/07/23 07:45:24;;;;;;;5.15;4.65;;;;;;;40.62;21.59;99576.66;5136239;27;20273;-71
2022/07/23 07:47:52;;;;;;;5.60;4.72;;;;;;;40.69;21.17;99582.25;5136082;27;20596;-70
2022/07/23 07:50:19;;;;;;;6.88;4.97;;;;;;;40.58;21.71;99564.66;5135818;27;20221;-71
2022/07/23 07:52:46;;;;;;;11.27;5.07;;;;;;;40.46;22.02;99570.59;5135835;27;20190;-73
2022/07/23 07:55:13;;;;;;;9.93;5.50;;;;;;;40.59;22.47;99569.06;5133954;27;20221;-70
2022/07/23 07:57:42;;;;;;;5.13;4.63;;;;;;;40.47;22.31;99565.84;5135687;27;20738;-70
2022/07/23 08:00:11;;;;;;;5.15;4.40;;;;;;;40.41;22.31;99568.19;5135331;27;20190;-71
2022/07/23 08:02:45;;;;;;;5.78;4.93;;;;;;;40.44;21.78;99564.63;5135407;27;20277;-70
2022/07/23 08:05:12;;;;;;;5.18;4.55;;;;;;;40.49;22.02;99564.25;5136134;27;20190;-70
2022/07/23 08:07:40;;;;;;;5.25;4.70;;;;;;;40.58;22.15;99558.31;5136562;27;20194;-71
2022/07/23 08:10:08;;;;;;;7.53;5.05;;;;;;;40.61;22.11;99550.00;5135512;27;20186;-70
2022/07/23 08:12:45;;;;;;;5.95;4.53;;;;;;;40.44;21.71;99561.84;5135522;27;20200;-70
2022/07/23 08:15:13;;;;;;;11.65;5.18;;;;;;;40.57;21.67;99560.28;5135257;27;20237;-70
2022/07/23 08:17:40;;;;;;;8.65;4.85;;;;;;;40.75;21.38;99550.00;5135333;27;20194;-70
2022/07/23 08:20:08;;;;;;;4.88;4.43;;;;;;;41.03;21.00;99554.06;5135571;27;20577;-70
2022/07/23 08:22:45;;;;;;;8.50;5.05;;;;;;;40.99;20.13;99551.25;5135185;27;20615;-71
2022/07/23 08:25:13;;;;;;;4.63;4.15;;;;;;;40.82;20.36;99540.84;5135077;27;20193;-69
2022/07/23 08:27:39;;;;;;;8.63;4.70;;;;;;;40.95;20.50;99544.88;5136223;27;20258;-69
2022/07/23 08:30:09;;;;;;;7.80;4.13;;;;;;;41.04;20.09;99539.75;5134964;27;20688;-69
2022/07/23 08:32:49;;;;;;;6.88;4.00;;;;;;;41.07;20.11;99527.00;5136044;27;20729;-70
2022/07/23 08:35:16;;;;;;;9.85;4.68;;;;;;;41.24;20.68;99534.56;5134809;27;20803;-69
2022/07/23 08:37:42;;;;;;;7.70;4.20;;;;;;;41.29;19.81;99529.38;5135202;27;20197;-70
2022/07/23 08:40:11;;;;;;;6.70;4.75;;;;;;;41.34;19.86;99530.97;5134709;27;20210;-69
2022/07/23 08:42:38;;;;;;;11.65;4.65;;;;;;;41.47;20.35;99529.41;5135200;27;20190;-70
2022/07/23 08:45:09;;;;;;;7.10;4.88;;;;;;;41.08;20.93;99520.22;5135042;27;20254;-71
2022/07/23 08:47:38;;;;;;;6.43;4.40;;;;;;;40.99;20.19;99515.00;5135927;27;20254;-68
2022/07/23 08:50:08;;;;;;;7.20;3.88;;;;;;;41.04;20.16;99521.00;5134973;27;20193;-69
2022/07/23 08:52:35;;;;;;;6.40;4.68;;;;;;;41.17;19.42;99515.03;5133957;27;20198;-70
2022/07/23 08:55:02;;;;;;;5.25;4.50;;;;;;;41.25;20.14;99514.63;5135006;27;20685;-67
2022/07/23 08:57:29;;;;;;;8.18;4.50;;;;;;;41.14;20.46;99513.06;5133670;27;20194;-67
2022/07/23 08:59:56;;;;;;;7.07;3.85;;;;;;;41.31;20.69;99503.88;5134501;27;20190;-67
2022/07/23 09:02:24;;;;;;;4.22;3.83;;;;;;;41.48;19.58;99508.66;5134790;27;20190;-67
2022/07/23 09:04:50;;;;;;;4.35;3.92;;;;;;;41.52;19.14;99506.66;5134491;27;20202;-67
2022/07/23 09:07:17;;;;;;;5.20;4.20;;;;;;;41.75;19.14;99507.00;5132907;27;20321;-68
2022/07/23 09:09:44;;;;;;;9.07;4.20;;;;;;;41.88;18.54;99500.59;5134189;27;20246;-67
2022/07/23 09:12:12;;;;;;;12.38;4.72;;;;;;;41.13;19.65;99498.31;5135226;27;20266;-66
2022/07/23 09:14:40;;;;;;;8.25;4.40;;;;;;;41.03;19.73;99499.13;5134979;27;20668;-66
2022/07/23 09:17:15;;;;;;;7.18;4.13;;;;;;;41.27;19.44;99492.69;5134450;27;20251;-66
2022/07/23 09:19:44;;;;;;;6.35;4.38;;;;;;;41.66;19.11;99498.25;5134230;27;20231;-66
2022/07/23 09:22:22;;;;;;;8.13;4.07;;;;;;;41.87;18.39;99503.78;5133943;27;20189;-67
2022/07/23 09:25:10;;;;;;;10.00;4.43;;;;;;;41.90;19.24;99502.97;5134078;27;20189;-67
2022/07/23 09:27:52;;;;;;;6.28;3.92;;;;;;;41.75;18.56;99505.00;5135139;27;20234;-66
2022/07/23 09:30:19;;;;;;;6.28;3.63;;;;;;;41.83;18.52;99501.00;5133906;27;20638;-66
2022/07/23 09:33:04;;;;;;;8.55;4.25;;;;;;;42.02;19.76;99499.75;5133534;27;20194;-66
2022/07/23 09:35:47;;;;;;;5.88;4.28;;;;;;;42.02;18.65;99489.38;5133547;27;20250;-65
2022/07/23 09:38:14;;;;;;;8.82;4.20;;;;;;;42.09;18.15;99488.56;5133850;27;20610;-65
2022/07/23 09:40:41;;;;;;;8.20;3.80;;;;;;;42.25;18.08;99486.88;5133519;27;20717;-66
2022/07/23 09:43:08;;;;;;;9.52;4.47;;;;;;;42.43;18.43;99486.78;5133939;27;20193;-65
2022/07/23 09:45:35;;;;;;;6.88;3.85;;;;;;;41.83;17.62;99478.69;5133844;27;20198;-65
2022/07/23 09:48:13;;;;;;;6.18;3.90;;;;;;;42.00;17.35;99486.19;5134044;27;20225;-65
2022/07/23 09:50:40;;;;;;;8.68;3.58;;;;;;;42.27;17.14;99478.91;5133642;27;20285;-66
2022/07/23 09:53:09;;;;;;;7.13;3.38;;;;;;;42.46;16.60;99480.41;5133539;27;20673;-65
2022/07/23 09:55:38;;;;;;;4.97;4.05;;;;;;;42.41;17.27;99475.25;5133157;27;20762;-66
2022/07/23 09:58:08;;;;;;;5.25;3.60;;;;;;;42.38;17.11;99468.47;5133608;27;20193;-66
2022/07/23 10:00:35;;;;;;;7.00;3.53;;;;;;;42.20;17.39;99472.56;5133180;27;20661;-66
2022/07/23 10:03:03;;;;;;;12.27;4.20;;;;;;;42.17;16.74;99468.53;5133285;27;20250;-66
2022/07/23 10:05:31;;;;;;;7.18;3.97;;;;;;;42.37;16.42;99466.09;5133134;27;20657;-66
2022/07/23 10:08:00;;;;;;;5.63;3.58;;;;;;;42.34;16.19;99467.69;5134151;27;20736;-66
2022/07/23 10:10:29;;;;;;;3.85;3.30;;;;;;;42.34;16.42;99466.91;5133158;27;20194;-65
2022/07/23 10:15:46;;;;;;;5.13;3.65;;;;;;;42.31;16.62;99467.72;5112168;27;20225;-66
2022/07/23 10:18:13;;;;;;;8.75;3.60;;;;;;;41.41;17.08;99469.56;5132980;27;20198;-66
2022/07/23 10:20:41;;;;;;;6.55;3.75;;;;;;;41.59;16.94;99460.00;5133235;27;20196;-66
2022/07/23 10:23:17;;;;;;;6.13;4.13;;;;;;;41.88;16.57;99461.50;5133059;27;20664;-66
2022/07/23 10:25:53;;;;;;;4.55;3.40;;;;;;;42.09;16.77;99453.03;5133665;27;20194;-66
2022/07/23 10:28:48;;;;;;;10.85;3.92;;;;;;;42.33;16.34;99454.91;5133042;27;20189;-65
2022/07/23 10:31:27;;;;;;;5.20;4.70;;;;;;;42.50;16.27;99444.84;5132692;27;20231;-65
2022/07/23 10:34:03;;;;;;;3.83;3.53;;;;;;;41.79;16.81;99438.78;5133488;27;20242;-65
2022/07/23 10:36:43;;;;;;;20.48;4.38;;;;;;;42.02;16.01;99438.31;5133414;27;20213;-65
2022/07/23 10:39:16;;;;;;;6.95;4.13;;;;;;;42.05;16.05;99443.09;5134034;27;20189;-65
2022/07/23 10:41:44;;;;;;;5.38;3.50;;;;;;;41.90;15.97;99435.97;5133118;27;20273;-65
2022/07/23 10:44:13;;;;;;;6.53;4.00;;;;;;;41.85;16.26;99437.22;5131936;28;20235;-63
2022/07/23 10:47:10;;;;;;;3.92;3.58;;;;;;;41.60;16.31;99432.91;5132669;28;20246;-63
2022/07/23 10:49:37;;;;;;;4.85;3.58;;;;;;;41.75;16.41;99428.84;5133130;27;20277;-64
2022/07/23 10:52:18;;;;;;;8.25;4.18;;;;;;;41.78;16.39;99423.25;5132749;28;20194;-63
2022/07/23 10:54:46;;;;;;;9.20;3.75;;;;;;;41.77;16.03;99423.66;5132518;27;20189;-63
2022/07/23 10:57:15;;;;;;;6.93;3.67;;;;;;;41.88;16.89;99416.06;5132419;28;20200;-63
2022/07/23 11:00:16;;;;;;;5.03;4.10;;;;;;;41.99;17.38;99409.22;5132577;28;20185;-63
2022/07/23 11:02:45;;;;;;;4.95;3.80;;;;;;;42.12;16.27;99409.56;5127709;27;20630;-63
2022/07/23 11:05:14;;;;;;;4.30;3.88;;;;;;;42.21;16.20;99396.69;5128840;27;20401;-64
2022/07/23 11:08:20;;;;;;;16.35;4.47;;;;;;;42.38;16.30;99406.22;5129789;27;20242;-65
2022/07/23 11:10:49;;;;;;;9.02;4.20;;;;;;;42.53;15.67;99402.13;5111298;27;20714;-63
2022/07/23 11:13:45;;;;;;;8.85;3.88;;;;;;;42.33;14.99;99406.66;5125720;28;20198;-63
2022/07/23 11:16:29;;;;;;;4.38;3.25;;;;;;;42.08;15.68;99400.41;5126651;28;20212;-66
2022/07/23 11:19:07;;;;;;;6.40;4.03;;;;;;;41.94;15.46;99392.09;5127844;28;20182;-65
2022/07/23 11:21:47;;;;;;;4.72;4.30;;;;;;;42.04;15.03;99385.66;5126840;28;20225;-64
2022/07/23 11:24:25;;;;;;;16.17;4.32;;;;;;;42.23;15.38;99393.53;5130781;28;20238;-64
2022/07/23 11:27:03;;;;;;;13.20;3.70;;;;;;;42.17;14.74;99392.34;5126851;28;20192;-65
2022/07/23 11:29:48;;;;;;;7.20;4.03;;;;;;;42.07;15.05;99384.81;5131503;27;20273;-65
2022/07/23 11:32:35;;;;;;;9.73;3.60;;;;;;;42.03;15.20;99386.84;5133178;27;20274;-64
2022/07/23 11:35:03;;;;;;;4.97;3.63;;;;;;;42.05;14.66;99378.88;5134772;27;20189;-63
2022/07/23 11:37:34;;;;;;;5.25;3.30;;;;;;;42.13;15.42;99380.41;5135078;27;20278;-64
2022/07/23 11:40:02;;;;;;;6.35;3.72;;;;;;;42.20;15.02;99372.00;5133458;27;20189;-61